sensor_id;sensor_type;location;lat;lon;timestamp;temperature;humidity
18654;DHT22;9456;47.824;16.228;2023-07-09T00:00:16;17.80;99.90
18654;DHT22;9456;47.824;16.228;2023-07-09T00:02:44;17.80;99.90
18654;DHT22;9456;47.824;16.228;2023-07-09T00:05:15;17.80;99.90
18654;DHT22;9456;47.824;16.228;2023-07-09T00:07:43;17.80;99.90
18654;DHT22;9456;47.824;16.228;2023-07-09T00:10:19;17.70;99.90
18654;DHT22;9456;47.824;16.228;2023-07-09T00:12:47;17.70;99.90
18654;DHT22;9456;47.824;16.228;2023-07-09T00:15:16;17.70;99.90
18654;DHT22;9456;47.824;16.228;2023-07-09T00:17:45;17.70;99.90
18654;DHT22;9456;47.824;16.228;2023-07-09T00:20:15;17.70;99.90
18654;DHT22;9456;47.824;16.228;2023-07-09T00:22:44;17.60;99.90
18654;DHT22;9456;47.824;16.228;2023-07-09T00:25:14;17.60;99.90
18654;DHT22;9456;47.824;16.228;2023-07-09T00:27:43;17.60;99.90
18654;DHT22;9456;47.824;16.228;2023-07-09T00:30:16;17.60;99.90
18654;DHT22;9456;47.824;16.228;2023-07-09T00:32:45;17.60;99.90
18654;DHT22;9456;47.824;16.228;2023-07-09T00:38:00;17.50;99.90
18654;DHT22;9456;47.824;16.228;2023-07-09T00:40:29;17.50;99.90
18654;DHT22;9456;47.824;16.228;2023-07-09T00:42:59;17.50;99.90
18654;DHT22;9456;47.824;16.228;2023-07-09T00:45:27;17.50;99.90
18654;DHT22;9456;47.824;16.228;2023-07-09T00:47:56;17.40;99.90
18654;DHT22;9456;47.824;16.228;2023-07-09T00:50:34;17.40;99.90
18654;DHT22;9456;47.824;16.228;2023-07-09T00:53:04;17.40;99.90
18654;DHT22;9456;47.824;16.228;2023-07-09T00:55:33;17.30;99.90
18654;DHT22;9456;47.824;16.228;2023-07-09T00:58:02;17.40;99.90
18654;DHT22;9456;47.824;16.228;2023-07-09T01:00:32;17.40;99.90
18654;DHT22;9456;47.824;16.228;2023-07-09T01:03:00;17.30;99.90
18654;DHT22;9456;47.824;16.228;2023-07-09T01:05:29;17.30;99.90
18654;DHT22;9456;47.824;16.228;2023-07-09T01:07:58;17.20;99.90
18654;DHT22;9456;47.824;16.228;2023-07-09T01:10:27;17.20;99.90
18654;DHT22;9456;47.824;16.228;2023-07-09T01:13:05;17.10;99.90
18654;DHT22;9456;47.824;16.228;2023-07-09T01:15:38;17.10;99.90
18654;DHT22;9456;47.824;16.228;2023-07-09T01:18:07;17.00;99.90
18654;DHT22;9456;47.824;16.228;2023-07-09T01:20:39;17.00;99.90
18654;DHT22;9456;47.824;16.228;2023-07-09T01:23:07;16.90;99.90
18654;DHT22;9456;47.824;16.228;2023-07-09T01:25:38;16.90;99.90
18654;DHT22;9456;47.824;16.228;2023-07-09T01:28:07;16.80;99.90
18654;DHT22;9456;47.824;16.228;2023-07-09T01:30:37;16.80;99.90
18654;DHT22;9456;47.824;16.228;2023-07-09T01:33:05;16.70;99.90
18654;DHT22;9456;47.824;16.228;2023-07-09T01:35:35;16.70;99.90
18654;DHT22;9456;47.824;16.228;2023-07-09T01:38:03;16.60;99.90
18654;DHT22;9456;47.824;16.228;2023-07-09T01:40:32;16.60;99.90
18654;DHT22;9456;47.824;16.228;2023-07-09T01:43:02;16.60;99.90
18654;DHT22;9456;47.824;16.228;2023-07-09T01:45:30;16.50;99.90
18654;DHT22;9456;47.824;16.228;2023-07-09T01:47:59;16.50;99.90
18654;DHT22;9456;47.824;16.228;2023-07-09T01:50:28;16.50;99.90
18654;DHT22;9456;47.824;16.228;2023-07-09T01:52:57;16.50;99.90
18654;DHT22;9456;47.824;16.228;2023-07-09T01:55:26;16.40;99.90
18654;DHT22;9456;47.824;16.228;2023-07-09T01:57:55;16.40;99.90
18654;DHT22;9456;47.824;16.228;2023-07-09T02:00:24;16.40;99.90
18654;DHT22;9456;47.824;16.228;2023-07-09T02:02:53;16.40;99.90
18654;DHT22;9456;47.824;16.228;2023-07-09T02:05:21;16.40;99.90
18654;DHT22;9456;47.824;16.228;2023-07-09T02:07:50;16.40;99.90
18654;DHT22;9456;47.824;16.228;2023-07-09T02:10:19;16.40;99.90
18654;DHT22;9456;47.824;16.228;2023-07-09T02:12:48;16.40;99.90
18654;DHT22;9456;47.824;16.228;2023-07-09T02:15:17;16.40;99.90
18654;DHT22;9456;47.824;16.228;2023-07-09T02:17:46;16.40;99.90
18654;DHT22;9456;47.824;16.228;2023-07-09T02:20:15;16.40;99.90
18654;DHT22;9456;47.824;16.228;2023-07-09T02:22:44;16.40;99.90
18654;DHT22;9456;47.824;16.228;2023-07-09T02:25:13;16.40;99.90
18654;DHT22;9456;47.824;16.228;2023-07-09T02:27:42;16.40;99.90
18654;DHT22;9456;47.824;16.228;2023-07-09T02:30:11;16.40;99.90
18654;DHT22;9456;47.824;16.228;2023-07-09T02:32:40;16.40;99.90
18654;DHT22;9456;47.824;16.228;2023-07-09T02:35:09;16.40;99.90
18654;DHT22;9456;47.824;16.228;2023-07-09T02:37:38;16.30;99.90
18654;DHT22;9456;47.824;16.228;2023-07-09T02:40:11;16.30;99.90
18654;DHT22;9456;47.824;16.228;2023-07-09T02:42:40;16.30;99.90
18654;DHT22;9456;47.824;16.228;2023-07-09T02:45:10;16.30;99.90
18654;DHT22;9456;47.824;16.228;2023-07-09T02:47:39;16.20;99.90
18654;DHT22;9456;47.824;16.228;2023-07-09T02:50:09;16.20;99.90
18654;DHT22;9456;47.824;16.228;2023-07-09T02:52:39;16.20;99.90
18654;DHT22;9456;47.824;16.228;2023-07-09T02:55:08;16.20;99.90
18654;DHT22;9456;47.824;16.228;2023-07-09T02:57:37;16.20;99.90
18654;DHT22;9456;47.824;16.228;2023-07-09T03:00:08;16.20;99.90
18654;DHT22;9456;47.824;16.228;2023-07-09T03:02:37;16.20;99.90
18654;DHT22;9456;47.824;16.228;2023-07-09T03:05:07;16.20;99.90
18654;DHT22;9456;47.824;16.228;2023-07-09T03:07:36;16.20;99.90
18654;DHT22;9456;47.824;16.228;2023-07-09T03:10:06;16.20;99.90
18654;DHT22;9456;47.824;16.228;2023-07-09T03:12:35;16.20;99.90
18654;DHT22;9456;47.824;16.228;2023-07-09T03:15:05;16.20;99.90
18654;DHT22;9456;47.824;16.228;2023-07-09T03:17:33;16.20;99.90
18654;DHT22;9456;47.824;16.228;2023-07-09T03:20:03;16.20;99.90
18654;DHT22;9456;47.824;16.228;2023-07-09T03:22:32;16.10;99.90
18654;DHT22;9456;47.824;16.228;2023-07-09T03:25:01;16.10;99.90
18654;DHT22;9456;47.824;16.228;2023-07-09T03:27:30;16.10;99.90
18654;DHT22;9456;47.824;16.228;2023-07-09T03:29:59;16.20;99.90
18654;DHT22;9456;47.824;16.228;2023-07-09T03:32:27;16.10;99.90
18654;DHT22;9456;47.824;16.228;2023-07-09T03:34:56;16.20;99.90
18654;DHT22;9456;47.824;16.228;2023-07-09T03:37:25;16.20;99.90
18654;DHT22;9456;47.824;16.228;2023-07-09T03:39:54;16.20;99.90
18654;DHT22;9456;47.824;16.228;2023-07-09T03:50:28;16.40;99.90
18654;DHT22;9456;47.824;16.228;2023-07-09T03:52:57;16.40;99.90
18654;DHT22;9456;47.824;16.228;2023-07-09T03:55:26;16.50;99.90
18654;DHT22;9456;47.824;16.228;2023-07-09T03:57:55;16.70;99.90
18654;DHT22;9456;47.824;16.228;2023-07-09T04:00:24;16.90;99.90
18654;DHT22;9456;47.824;16.228;2023-07-09T04:02:53;17.00;99.90
18654;DHT22;9456;47.824;16.228;2023-07-09T04:05:22;17.20;99.90
18654;DHT22;9456;47.824;16.228;2023-07-09T04:07:51;17.40;99.90
18654;DHT22;9456;47.824;16.228;2023-07-09T04:10:20;17.50;99.90
18654;DHT22;9456;47.824;16.228;2023-07-09T04:12:48;17.60;99.90
18654;DHT22;9456;47.824;16.228;2023-07-09T04:15:17;17.90;99.90
18654;DHT22;9456;47.824;16.228;2023-07-09T04:17:46;18.10;99.90
18654;DHT22;9456;47.824;16.228;2023-07-09T04:20:15;18.20;99.90
18654;DHT22;9456;47.824;16.228;2023-07-09T04:22:44;18.50;99.90
18654;DHT22;9456;47.824;16.228;2023-07-09T04:25:13;18.60;99.90
18654;DHT22;9456;47.824;16.228;2023-07-09T04:27:42;18.70;99.90
18654;DHT22;9456;47.824;16.228;2023-07-09T04:30:13;18.90;99.90
18654;DHT22;9456;47.824;16.228;2023-07-09T04:32:41;19.00;99.90
18654;DHT22;9456;47.824;16.228;2023-07-09T04:35:11;19.20;99.90
18654;DHT22;9456;47.824;16.228;2023-07-09T04:37:40;19.30;99.90
18654;DHT22;9456;47.824;16.228;2023-07-09T04:40:11;19.40;99.90
18654;DHT22;9456;47.824;16.228;2023-07-09T04:42:39;19.60;99.90
18654;DHT22;9456;47.824;16.228;2023-07-09T04:45:13;19.70;99.90
18654;DHT22;9456;47.824;16.228;2023-07-09T04:47:42;19.80;99.90
18654;DHT22;9456;47.824;16.228;2023-07-09T04:50:12;20.00;99.90
18654;DHT22;9456;47.824;16.228;2023-07-09T04:52:40;20.20;99.90
18654;DHT22;9456;47.824;16.228;2023-07-09T04:55:09;20.50;99.90
18654;DHT22;9456;47.824;16.228;2023-07-09T04:57:38;20.80;99.90
18654;DHT22;9456;47.824;16.228;2023-07-09T05:00:09;21.00;99.90
18654;DHT22;9456;47.824;16.228;2023-07-09T05:02:38;21.10;99.90
18654;DHT22;9456;47.824;16.228;2023-07-09T05:05:08;21.40;99.90
18654;DHT22;9456;47.824;16.228;2023-07-09T05:07:37;21.60;99.90
18654;DHT22;9456;47.824;16.228;2023-07-09T05:10:07;21.90;99.90
18654;DHT22;9456;47.824;16.228;2023-07-09T05:12:36;22.20;99.90
18654;DHT22;9456;47.824;16.228;2023-07-09T05:15:06;22.60;99.90
18654;DHT22;9456;47.824;16.228;2023-07-09T05:17:35;22.90;99.90
18654;DHT22;9456;47.824;16.228;2023-07-09T05:20:06;23.40;99.90
18654;DHT22;9456;47.824;16.228;2023-07-09T05:22:35;23.90;99.90
18654;DHT22;9456;47.824;16.228;2023-07-09T05:25:04;24.30;99.90
18654;DHT22;9456;47.824;16.228;2023-07-09T05:27:33;24.70;99.90
18654;DHT22;9456;47.824;16.228;2023-07-09T05:30:03;24.90;99.90
18654;DHT22;9456;47.824;16.228;2023-07-09T05:32:32;25.10;99.90
18654;DHT22;9456;47.824;16.228;2023-07-09T05:35:00;25.30;99.90
18654;DHT22;9456;47.824;16.228;2023-07-09T05:37:29;25.70;99.90
18654;DHT22;9456;47.824;16.228;2023-07-09T05:39:58;26.10;99.90
18654;DHT22;9456;47.824;16.228;2023-07-09T05:42:27;26.40;99.90
18654;DHT22;9456;47.824;16.228;2023-07-09T05:44:56;26.60;99.90
18654;DHT22;9456;47.824;16.228;2023-07-09T05:47:27;26.70;99.90
18654;DHT22;9456;47.824;16.228;2023-07-09T05:49:56;27.00;99.90
18654;DHT22;9456;47.824;16.228;2023-07-09T05:52:27;26.90;99.90
18654;DHT22;9456;47.824;16.228;2023-07-09T05:54:54;26.80;99.90
18654;DHT22;9456;47.824;16.228;2023-07-09T05:57:23;26.80;99.90
18654;DHT22;9456;47.824;16.228;2023-07-09T05:59:52;26.80;99.90
18654;DHT22;9456;47.824;16.228;2023-07-09T06:02:21;26.70;99.90
18654;DHT22;9456;47.824;16.228;2023-07-09T06:04:51;26.70;99.90
18654;DHT22;9456;47.824;16.228;2023-07-09T06:07:21;26.70;99.90
18654;DHT22;9456;47.824;16.228;2023-07-09T06:09:48;26.90;99.90
18654;DHT22;9456;47.824;16.228;2023-07-09T06:12:17;26.90;99.90
18654;DHT22;9456;47.824;16.228;2023-07-09T06:14:46;27.00;99.90
18654;DHT22;9456;47.824;16.228;2023-07-09T06:17:15;27.50;99.90
18654;DHT22;9456;47.824;16.228;2023-07-09T06:19:45;27.80;99.90
18654;DHT22;9456;47.824;16.228;2023-07-09T06:22:13;27.90;99.90
18654;DHT22;9456;47.824;16.228;2023-07-09T06:24:42;28.10;99.90
18654;DHT22;9456;47.824;16.228;2023-07-09T06:27:11;28.20;99.90
18654;DHT22;9456;47.824;16.228;2023-07-09T06:29:40;28.50;99.90
18654;DHT22;9456;47.824;16.228;2023-07-09T06:32:09;28.80;99.90
18654;DHT22;9456;47.824;16.228;2023-07-09T06:34:38;29.20;99.90
18654;DHT22;9456;47.824;16.228;2023-07-09T06:37:07;29.40;99.90
18654;DHT22;9456;47.824;16.228;2023-07-09T06:39:35;29.70;99.90
18654;DHT22;9456;47.824;16.228;2023-07-09T06:42:05;29.90;99.30
18654;DHT22;9456;47.824;16.228;2023-07-09T06:44:34;30.20;98.40
18654;DHT22;9456;47.824;16.228;2023-07-09T06:47:04;30.40;96.30
18654;DHT22;9456;47.824;16.228;2023-07-09T06:52:20;31.20;93.20
18654;DHT22;9456;47.824;16.228;2023-07-09T06:54:49;31.40;90.50
18654;DHT22;9456;47.824;16.228;2023-07-09T06:57:18;31.70;82.60
18654;DHT22;9456;47.824;16.228;2023-07-09T06:59:47;31.90;84.60
18654;DHT22;9456;47.824;16.228;2023-07-09T07:02:16;31.80;79.20
18654;DHT22;9456;47.824;16.228;2023-07-09T07:04:45;32.00;79.20
18654;DHT22;9456;47.824;16.228;2023-07-09T07:07:14;32.30;81.30
18654;DHT22;9456;47.824;16.228;2023-07-09T07:09:43;32.50;74.40
18654;DHT22;9456;47.824;16.228;2023-07-09T07:12:13;32.80;76.60
18654;DHT22;9456;47.824;16.228;2023-07-09T07:14:42;33.20;76.20
18654;DHT22;9456;47.824;16.228;2023-07-09T07:17:11;33.50;68.90
18654;DHT22;9456;47.824;16.228;2023-07-09T07:19:40;33.70;67.90
18654;DHT22;9456;47.824;16.228;2023-07-09T07:22:08;33.60;67.60
18654;DHT22;9456;47.824;16.228;2023-07-09T07:24:37;33.60;67.50
18654;DHT22;9456;47.824;16.228;2023-07-09T07:27:07;34.10;66.60
18654;DHT22;9456;47.824;16.228;2023-07-09T07:29:36;34.60;63.70
18654;DHT22;9456;47.824;16.228;2023-07-09T07:32:06;34.90;61.20
18654;DHT22;9456;47.824;16.228;2023-07-09T07:34:35;34.80;61.80
18654;DHT22;9456;47.824;16.228;2023-07-09T07:37:05;34.80;59.10
18654;DHT22;9456;47.824;16.228;2023-07-09T07:39:34;34.60;58.50
18654;DHT22;9456;47.824;16.228;2023-07-09T07:42:03;34.30;60.60
18654;DHT22;9456;47.824;16.228;2023-07-09T07:44:32;34.30;60.20
18654;DHT22;9456;47.824;16.228;2023-07-09T07:47:00;34.60;58.50
18654;DHT22;9456;47.824;16.228;2023-07-09T07:49:29;34.80;56.10
18654;DHT22;9456;47.824;16.228;2023-07-09T07:51:59;34.60;56.50
18654;DHT22;9456;47.824;16.228;2023-07-09T07:54:28;34.50;56.20
18654;DHT22;9456;47.824;16.228;2023-07-09T07:56:57;34.30;56.90
18654;DHT22;9456;47.824;16.228;2023-07-09T07:59:26;34.50;56.10
18654;DHT22;9456;47.824;16.228;2023-07-09T08:01:55;34.60;55.10
18654;DHT22;9456;47.824;16.228;2023-07-09T08:04:24;34.40;54.90
18654;DHT22;9456;47.824;16.228;2023-07-09T08:06:53;34.40;54.30
18654;DHT22;9456;47.824;16.228;2023-07-09T08:09:22;34.30;56.20
18654;DHT22;9456;47.824;16.228;2023-07-09T08:11:51;34.20;53.80
18654;DHT22;9456;47.824;16.228;2023-07-09T08:14:20;34.30;55.30
18654;DHT22;9456;47.824;16.228;2023-07-09T08:16:48;34.30;54.80
18654;DHT22;9456;47.824;16.228;2023-07-09T08:19:19;34.60;54.60
18654;DHT22;9456;47.824;16.228;2023-07-09T08:21:47;34.40;55.50
18654;DHT22;9456;47.824;16.228;2023-07-09T08:24:16;34.40;55.40
18654;DHT22;9456;47.824;16.228;2023-07-09T08:26:45;34.40;56.70
18654;DHT22;9456;47.824;16.228;2023-07-09T08:29:14;34.30;56.10
18654;DHT22;9456;47.824;16.228;2023-07-09T08:31:43;34.30;56.60
18654;DHT22;9456;47.824;16.228;2023-07-09T08:34:12;34.40;56.60
18654;DHT22;9456;47.824;16.228;2023-07-09T08:36:41;34.40;56.00
18654;DHT22;9456;47.824;16.228;2023-07-09T08:39:10;34.40;54.90
18654;DHT22;9456;47.824;16.228;2023-07-09T08:41:42;34.40;56.10
18654;DHT22;9456;47.824;16.228;2023-07-09T08:44:17;34.20;54.40
18654;DHT22;9456;47.824;16.228;2023-07-09T08:46:49;34.00;55.60
18654;DHT22;9456;47.824;16.228;2023-07-09T08:49:17;34.00;57.10
18654;DHT22;9456;47.824;16.228;2023-07-09T08:51:45;34.00;55.10
18654;DHT22;9456;47.824;16.228;2023-07-09T08:54:25;33.90;55.40
18654;DHT22;9456;47.824;16.228;2023-07-09T08:56:54;33.60;55.60
18654;DHT22;9456;47.824;16.228;2023-07-09T08:59:23;33.60;56.70
18654;DHT22;9456;47.824;16.228;2023-07-09T09:01:52;33.50;55.00
18654;DHT22;9456;47.824;16.228;2023-07-09T09:04:23;33.40;56.20
18654;DHT22;9456;47.824;16.228;2023-07-09T09:06:52;33.40;56.10
18654;DHT22;9456;47.824;16.228;2023-07-09T09:09:40;33.40;56.20
18654;DHT22;9456;47.824;16.228;2023-07-09T09:12:13;33.40;54.50
18654;DHT22;9456;47.824;16.228;2023-07-09T09:14:41;33.40;55.40
18654;DHT22;9456;47.824;16.228;2023-07-09T09:17:12;33.40;55.80
18654;DHT22;9456;47.824;16.228;2023-07-09T09:19:42;33.50;54.60
18654;DHT22;9456;47.824;16.228;2023-07-09T09:22:10;33.60;53.70
18654;DHT22;9456;47.824;16.228;2023-07-09T09:24:40;33.60;53.70
18654;DHT22;9456;47.824;16.228;2023-07-09T09:27:09;33.30;54.40
18654;DHT22;9456;47.824;16.228;2023-07-09T09:29:38;33.30;51.90
18654;DHT22;9456;47.824;16.228;2023-07-09T09:32:16;33.30;53.50
18654;DHT22;9456;47.824;16.228;2023-07-09T09:34:45;33.40;51.90
18654;DHT22;9456;47.824;16.228;2023-07-09T09:37:15;33.30;51.70
18654;DHT22;9456;47.824;16.228;2023-07-09T09:39:44;33.40;52.80
18654;DHT22;9456;47.824;16.228;2023-07-09T09:42:13;33.40;53.00
18654;DHT22;9456;47.824;16.228;2023-07-09T09:44:45;33.40;51.80
18654;DHT22;9456;47.824;16.228;2023-07-09T09:47:14;33.50;51.00
18654;DHT22;9456;47.824;16.228;2023-07-09T09:49:43;33.60;51.40
18654;DHT22;9456;47.824;16.228;2023-07-09T09:52:13;33.60;50.70
18654;DHT22;9456;47.824;16.228;2023-07-09T09:54:49;33.70;50.60
18654;DHT22;9456;47.824;16.228;2023-07-09T09:57:19;33.60;50.20
18654;DHT22;9456;47.824;16.228;2023-07-09T09:59:47;33.50;50.30
18654;DHT22;9456;47.824;16.228;2023-07-09T10:02:17;33.30;51.10
18654;DHT22;9456;47.824;16.228;2023-07-09T10:04:46;33.50;49.90
18654;DHT22;9456;47.824;16.228;2023-07-09T10:07:18;33.60;49.40
18654;DHT22;9456;47.824;16.228;2023-07-09T10:09:46;33.50;48.80
18654;DHT22;9456;47.824;16.228;2023-07-09T10:12:16;33.50;51.40
18654;DHT22;9456;47.824;16.228;2023-07-09T10:14:47;33.50;49.50
18654;DHT22;9456;47.824;16.228;2023-07-09T10:17:20;33.60;48.90
18654;DHT22;9456;47.824;16.228;2023-07-09T10:19:52;33.60;48.70
18654;DHT22;9456;47.824;16.228;2023-07-09T10:22:24;33.60;48.90
18654;DHT22;9456;47.824;16.228;2023-07-09T10:24:56;33.50;47.60
18654;DHT22;9456;47.824;16.228;2023-07-09T10:27:25;33.30;47.80
18654;DHT22;9456;47.824;16.228;2023-07-09T10:29:59;33.20;49.50
18654;DHT22;9456;47.824;16.228;2023-07-09T10:32:33;33.40;47.90
18654;DHT22;9456;47.824;16.228;2023-07-09T10:35:04;33.50;46.90
18654;DHT22;9456;47.824;16.228;2023-07-09T10:37:42;33.50;47.10
18654;DHT22;9456;47.824;16.228;2023-07-09T10:40:10;33.50;45.70
18654;DHT22;9456;47.824;16.228;2023-07-09T10:42:41;33.60;46.60
18654;DHT22;9456;47.824;16.228;2023-07-09T10:45:11;33.60;45.30
18654;DHT22;9456;47.824;16.228;2023-07-09T10:47:48;33.50;46.40
18654;DHT22;9456;47.824;16.228;2023-07-09T10:50:21;33.50;44.90
18654;DHT22;9456;47.824;16.228;2023-07-09T10:52:46;33.40;46.00
18654;DHT22;9456;47.824;16.228;2023-07-09T10:55:16;33.50;45.20
18654;DHT22;9456;47.824;16.228;2023-07-09T10:57:46;33.60;46.80
18654;DHT22;9456;47.824;16.228;2023-07-09T11:00:20;33.40;39.70
18654;DHT22;9456;47.824;16.228;2023-07-09T11:02:50;33.30;39.40
18654;DHT22;9456;47.824;16.228;2023-07-09T11:05:17;33.20;42.20
18654;DHT22;9456;47.824;16.228;2023-07-09T11:07:49;33.20;41.10
18654;DHT22;9456;47.824;16.228;2023-07-09T11:10:18;33.00;40.80
18654;DHT22;9456;47.824;16.228;2023-07-09T11:12:46;33.10;40.10
18654;DHT22;9456;47.824;16.228;2023-07-09T11:15:16;32.90;42.60
18654;DHT22;9456;47.824;16.228;2023-07-09T11:17:45;32.70;44.20
18654;DHT22;9456;47.824;16.228;2023-07-09T11:20:19;32.50;44.40
18654;DHT22;9456;47.824;16.228;2023-07-09T11:22:53;32.40;45.40
18654;DHT22;9456;47.824;16.228;2023-07-09T11:25:40;32.40;41.60
18654;DHT22;9456;47.824;16.228;2023-07-09T11:28:04;32.20;42.30
18654;DHT22;9456;47.824;16.228;2023-07-09T11:30:33;32.10;41.20
18654;DHT22;9456;47.824;16.228;2023-07-09T11:33:03;32.00;41.80
18654;DHT22;9456;47.824;16.228;2023-07-09T11:35:43;32.00;40.80
18654;DHT22;9456;47.824;16.228;2023-07-09T11:38:16;32.00;43.30
18654;DHT22;9456;47.824;16.228;2023-07-09T11:40:48;32.10;45.00
18654;DHT22;9456;47.824;16.228;2023-07-09T11:43:32;32.00;44.40
18654;DHT22;9456;47.824;16.228;2023-07-09T11:46:01;32.00;43.80
18654;DHT22;9456;47.824;16.228;2023-07-09T11:48:29;31.90;44.40
18654;DHT22;9456;47.824;16.228;2023-07-09T11:50:58;31.70;44.20
18654;DHT22;9456;47.824;16.228;2023-07-09T11:53:32;31.60;44.30
18654;DHT22;9456;47.824;16.228;2023-07-09T11:55:59;31.50;44.00
18654;DHT22;9456;47.824;16.228;2023-07-09T11:58:28;31.40;43.60
18654;DHT22;9456;47.824;16.228;2023-07-09T12:00:57;31.30;45.10
18654;DHT22;9456;47.824;16.228;2023-07-09T12:06:16;31.20;43.70
18654;DHT22;9456;47.824;16.228;2023-07-09T12:08:44;31.20;43.60
18654;DHT22;9456;47.824;16.228;2023-07-09T12:11:21;31.10;43.70
18654;DHT22;9456;47.824;16.228;2023-07-09T12:13:49;31.10;44.70
18654;DHT22;9456;47.824;16.228;2023-07-09T12:16:23;31.20;43.50
18654;DHT22;9456;47.824;16.228;2023-07-09T12:18:51;31.30;44.40
18654;DHT22;9456;47.824;16.228;2023-07-09T12:21:20;31.30;44.20
18654;DHT22;9456;47.824;16.228;2023-07-09T12:23:49;31.30;46.10
18654;DHT22;9456;47.824;16.228;2023-07-09T12:26:18;31.40;44.30
18654;DHT22;9456;47.824;16.228;2023-07-09T12:28:51;31.40;44.90
18654;DHT22;9456;47.824;16.228;2023-07-09T12:31:24;31.30;44.00
18654;DHT22;9456;47.824;16.228;2023-07-09T12:33:52;31.30;44.10
18654;DHT22;9456;47.824;16.228;2023-07-09T12:36:19;31.30;45.00
18654;DHT22;9456;47.824;16.228;2023-07-09T12:38:49;31.20;44.90
18654;DHT22;9456;47.824;16.228;2023-07-09T12:41:22;31.20;45.40
18654;DHT22;9456;47.824;16.228;2023-07-09T12:43:48;31.20;43.90
18654;DHT22;9456;47.824;16.228;2023-07-09T12:46:17;31.20;44.70
18654;DHT22;9456;47.824;16.228;2023-07-09T12:48:47;31.10;44.50
18654;DHT22;9456;47.824;16.228;2023-07-09T12:51:18;31.10;45.40
18654;DHT22;9456;47.824;16.228;2023-07-09T12:53:45;31.10;46.10
18654;DHT22;9456;47.824;16.228;2023-07-09T12:56:15;31.20;45.80
18654;DHT22;9456;47.824;16.228;2023-07-09T12:58:43;31.20;46.10
18654;DHT22;9456;47.824;16.228;2023-07-09T13:01:16;31.20;45.50
18654;DHT22;9456;47.824;16.228;2023-07-09T13:03:53;31.20;45.60
18654;DHT22;9456;47.824;16.228;2023-07-09T13:06:28;31.20;44.50
18654;DHT22;9456;47.824;16.228;2023-07-09T13:08:58;31.20;44.10
18654;DHT22;9456;47.824;16.228;2023-07-09T13:11:31;31.10;44.90
18654;DHT22;9456;47.824;16.228;2023-07-09T13:13:57;31.00;43.90
18654;DHT22;9456;47.824;16.228;2023-07-09T13:16:25;30.90;44.50
18654;DHT22;9456;47.824;16.228;2023-07-09T13:18:54;30.90;44.50
18654;DHT22;9456;47.824;16.228;2023-07-09T13:21:23;30.90;45.30
18654;DHT22;9456;47.824;16.228;2023-07-09T13:23:52;30.90;43.30
18654;DHT22;9456;47.824;16.228;2023-07-09T13:26:21;30.90;44.40
18654;DHT22;9456;47.824;16.228;2023-07-09T13:28:50;30.90;43.70
18654;DHT22;9456;47.824;16.228;2023-07-09T13:31:19;30.90;43.50
18654;DHT22;9456;47.824;16.228;2023-07-09T13:33:52;30.90;44.00
18654;DHT22;9456;47.824;16.228;2023-07-09T13:36:19;30.90;44.70
18654;DHT22;9456;47.824;16.228;2023-07-09T13:38:49;30.90;45.60
18654;DHT22;9456;47.824;16.228;2023-07-09T13:41:18;31.00;44.10
18654;DHT22;9456;47.824;16.228;2023-07-09T13:43:46;31.20;44.60
18654;DHT22;9456;47.824;16.228;2023-07-09T13:46:15;31.20;43.60
18654;DHT22;9456;47.824;16.228;2023-07-09T13:48:44;31.20;40.20
18654;DHT22;9456;47.824;16.228;2023-07-09T13:51:16;31.20;41.10
18654;DHT22;9456;47.824;16.228;2023-07-09T13:53:44;31.20;40.80
18654;DHT22;9456;47.824;16.228;2023-07-09T13:56:13;31.20;39.60
18654;DHT22;9456;47.824;16.228;2023-07-09T13:58:42;31.20;39.50
18654;DHT22;9456;47.824;16.228;2023-07-09T14:01:12;31.10;39.50
18654;DHT22;9456;47.824;16.228;2023-07-09T14:03:40;31.10;39.80
18654;DHT22;9456;47.824;16.228;2023-07-09T14:06:12;31.10;40.00
18654;DHT22;9456;47.824;16.228;2023-07-09T14:08:41;31.20;39.70
18654;DHT22;9456;47.824;16.228;2023-07-09T14:11:12;31.20;39.50
18654;DHT22;9456;47.824;16.228;2023-07-09T14:13:40;31.30;40.50
18654;DHT22;9456;47.824;16.228;2023-07-09T14:16:11;31.30;40.10
18654;DHT22;9456;47.824;16.228;2023-07-09T14:18:39;31.30;39.20
18654;DHT22;9456;47.824;16.228;2023-07-09T14:21:12;31.30;40.20
18654;DHT22;9456;47.824;16.228;2023-07-09T14:23:41;31.30;40.30
18654;DHT22;9456;47.824;16.228;2023-07-09T14:26:10;31.30;39.00
18654;DHT22;9456;47.824;16.228;2023-07-09T14:28:39;31.30;39.10
18654;DHT22;9456;47.824;16.228;2023-07-09T14:31:17;31.30;39.90
18654;DHT22;9456;47.824;16.228;2023-07-09T14:33:42;31.30;40.30
18654;DHT22;9456;47.824;16.228;2023-07-09T14:36:11;31.40;40.90
18654;DHT22;9456;47.824;16.228;2023-07-09T14:38:40;31.30;39.80
18654;DHT22;9456;47.824;16.228;2023-07-09T14:41:16;31.30;39.70
18654;DHT22;9456;47.824;16.228;2023-07-09T14:43:43;31.30;41.20
18654;DHT22;9456;47.824;16.228;2023-07-09T14:46:12;31.30;41.20
18654;DHT22;9456;47.824;16.228;2023-07-09T14:48:41;31.30;40.10
18654;DHT22;9456;47.824;16.228;2023-07-09T14:51:14;31.30;40.80
18654;DHT22;9456;47.824;16.228;2023-07-09T14:53:43;31.30;40.10
18654;DHT22;9456;47.824;16.228;2023-07-09T14:56:13;31.30;40.30
18654;DHT22;9456;47.824;16.228;2023-07-09T14:58:42;31.30;40.10
18654;DHT22;9456;47.824;16.228;2023-07-09T15:01:12;31.30;40.40
18654;DHT22;9456;47.824;16.228;2023-07-09T15:03:41;31.30;40.70
18654;DHT22;9456;47.824;16.228;2023-07-09T15:06:10;31.30;40.80
18654;DHT22;9456;47.824;16.228;2023-07-09T15:08:39;31.30;41.20
18654;DHT22;9456;47.824;16.228;2023-07-09T15:11:14;31.30;41.20
18654;DHT22;9456;47.824;16.228;2023-07-09T15:13:43;31.30;41.10
18654;DHT22;9456;47.824;16.228;2023-07-09T15:16:12;31.30;40.20
18654;DHT22;9456;47.824;16.228;2023-07-09T15:18:41;31.30;41.20
18654;DHT22;9456;47.824;16.228;2023-07-09T15:21:10;31.30;40.80
18654;DHT22;9456;47.824;16.228;2023-07-09T15:23:40;31.30;42.30
18654;DHT22;9456;47.824;16.228;2023-07-09T15:26:12;31.30;42.40
18654;DHT22;9456;47.824;16.228;2023-07-09T15:28:41;31.20;41.50
18654;DHT22;9456;47.824;16.228;2023-07-09T15:31:12;31.20;40.90
18654;DHT22;9456;47.824;16.228;2023-07-09T15:33:41;31.20;42.30
18654;DHT22;9456;47.824;16.228;2023-07-09T15:36:11;31.10;42.10
18654;DHT22;9456;47.824;16.228;2023-07-09T15:38:40;31.00;41.50
18654;DHT22;9456;47.824;16.228;2023-07-09T15:41:12;31.00;42.50
18654;DHT22;9456;47.824;16.228;2023-07-09T15:43:42;31.00;41.40
18654;DHT22;9456;47.824;16.228;2023-07-09T15:46:14;31.00;42.20
18654;DHT22;9456;47.824;16.228;2023-07-09T15:48:41;31.00;42.80
18654;DHT22;9456;47.824;16.228;2023-07-09T15:51:10;31.00;42.40
18654;DHT22;9456;47.824;16.228;2023-07-09T15:53:39;31.10;42.70
18654;DHT22;9456;47.824;16.228;2023-07-09T15:56:11;31.10;42.40
18654;DHT22;9456;47.824;16.228;2023-07-09T15:58:40;31.20;41.60
18654;DHT22;9456;47.824;16.228;2023-07-09T16:01:10;31.10;41.80